Time;durP1;ratioP1;P1;durP2;ratioP2;P2;SDS_P1;SDS_P2;PMS_P1;PMS_P2;Temp;Humidity;BMP_temperature;BMP_pressure;BME280_temperature;BME280_humidity;BME280_pressure;Samples;Min_cycle;Max_cycle;Signal;HPM_P1;HPM_P2
2022/10/29 00:01:24;;;;;;;0.10;0.10;;;;;;;;;;5035585;28;20465;-73
2022/10/29 00:03:50;;;;;;;0.20;0.20;;;;;;;;;;5035804;28;20366;-73
2022/10/29 00:06:15;;;;;;;0.32;0.32;;;;;;;;;;5035423;28;20025;-74
2022/10/29 00:08:41;;;;;;;0.73;0.73;;;;;;;;;;5033825;28;20155;-73
2022/10/29 00:11:07;;;;;;;0.20;0.20;;;;;;;;;;5035287;28;20168;-73
2022/10/29 00:13:33;;;;;;;1.45;1.45;;;;;;;;;;5035430;28;20034;-72
2022/10/29 00:15:59;;;;;;;0.10;0.10;;;;;;;;;;5017624;28;20029;-71
2022/10/29 00:18:24;;;;;;;0.20;0.20;;;;;;;;;;5017487;28;20033;-73
2022/10/29 00:20:58;;;;;;;7.47;4.75;;;;;;;;;;5035140;28;20021;-73
2022/10/29 00:23:23;;;;;;;0.20;0.20;;;;;;;;;;5017278;28;20025;-74
2022/10/29 00:25:49;;;;;;;0.20;0.20;;;;;;;;;;5017553;28;20087;-73
2022/10/29 00:28:14;;;;;;;0.28;0.28;;;;;;;;;;5034800;28;20021;-74
2022/10/29 00:30:40;;;;;;;0.75;0.75;;;;;;;;;;5034863;28;20355;-72
2022/10/29 00:33:05;;;;;;;0.20;0.20;;;;;;;;;;5035087;28;20010;-73
2022/10/29 00:35:30;;;;;;;3.13;1.52;;;;;;;;;;5034702;28;20040;-73
2022/10/29 00:37:56;;;;;;;0.10;0.10;;;;;;;;;;5034729;28;20361;-73
2022/10/29 00:40:21;;;;;;;3.45;3.30;;;;;;;;;;5034780;28;20051;-73
2022/10/29 00:42:47;;;;;;;0.10;0.10;;;;;;;;;;5034775;28;20053;-73
2022/10/29 00:45:16;;;;;;;0.10;0.10;;;;;;;;;;5017003;28;20124;-73
2022/10/29 00:47:42;;;;;;;1.20;1.10;;;;;;;;;;5034614;28;20075;-73
2022/10/29 00:50:09;;;;;;;0.10;0.10;;;;;;;;;;5034170;28;20033;-73
2022/10/29 00:52:37;;;;;;;2.42;1.75;;;;;;;;;;5016741;28;20131;-74
2022/10/29 00:55:05;;;;;;;0.73;0.73;;;;;;;;;;5034980;28;20088;-73
2022/10/29 00:57:34;;;;;;;0.30;0.30;;;;;;;;;;5016780;28;20044;-74
2022/10/29 00:59:59;;;;;;;0.10;0.10;;;;;;;;;;5034345;28;20091;-73
2022/10/29 01:02:26;;;;;;;2.55;1.85;;;;;;;;;;5016423;28;20021;-73
2022/10/29 01:04:52;;;;;;;0.10;0.10;;;;;;;;;;5034156;28;20025;-73
2022/10/29 01:07:18;;;;;;;0.30;0.30;;;;;;;;;;5034318;28;20025;-74
2022/10/29 01:09:44;;;;;;;0.10;0.10;;;;;;;;;;5016435;28;20037;-73
2022/10/29 01:12:28;;;;;;;0.13;0.13;;;;;;;;;;5034052;28;20026;-73
2022/10/29 01:14:59;;;;;;;0.35;0.32;;;;;;;;;;5034041;28;20064;-72
2022/10/29 01:17:44;;;;;;;0.20;0.20;;;;;;;;;;5034043;28;20072;-71
2022/10/29 01:20:28;;;;;;;0.85;0.85;;;;;;;;;;5033563;28;20053;-71
2022/10/29 01:23:12;;;;;;;1.67;1.60;;;;;;;;;;5033781;28;20448;-71
2022/10/29 01:25:43;;;;;;;0.10;0.10;;;;;;;;;;5034197;28;20029;-73
2022/10/29 01:28:18;;;;;;;0.47;0.47;;;;;;;;;;5015946;28;20110;-72
2022/10/29 01:31:02;;;;;;;0.10;0.10;;;;;;;;;;5033767;28;20037;-71
2022/10/29 01:33:33;;;;;;;17.63;1.70;;;;;;;;;;5033852;28;20033;-73
2022/10/29 01:36:14;;;;;;;0.10;0.10;;;;;;;;;;5033700;28;20021;-73
2022/10/29 01:39:18;;;;;;;0.10;0.10;;;;;;;;;;5015873;28;20082;-73
2022/10/29 01:41:43;;;;;;;1.13;1.13;;;;;;;;;;4975739;28;20458;-73
2022/10/29 01:44:24;;;;;;;1.15;1.15;;;;;;;;;;4992139;28;20034;-72
2022/10/29 01:47:00;;;;;;;0.20;0.20;;;;;;;;;;5015389;28;20094;-73
2022/10/29 01:49:40;;;;;;;0.10;0.10;;;;;;;;;;5033441;28;20053;-73
2022/10/29 01:52:07;;;;;;;0.30;0.30;;;;;;;;;;5033431;28;20029;-73
2022/10/29 01:54:32;;;;;;;5.45;3.22;;;;;;;;;;5033518;28;20029;-74
2022/10/29 01:56:59;;;;;;;0.10;0.10;;;;;;;;;;5033384;28;20044;-74
2022/10/29 01:59:26;;;;;;;0.10;0.10;;;;;;;;;;5015272;28;20057;-74
2022/10/29 02:02:10;;;;;;;0.10;0.10;;;;;;;;;;5015430;28;20084;-73
2022/10/29 02:04:48;;;;;;;1.00;1.00;;;;;;;;;;5033242;28;20017;-74
2022/10/29 02:07:22;;;;;;;0.17;0.17;;;;;;;;;;5033365;28;20026;-74
2022/10/29 02:09:55;;;;;;;0.10;0.10;;;;;;;;;;5033168;28;20040;-74
2022/10/29 02:12:28;;;;;;;0.10;0.10;;;;;;;;;;5033644;28;20040;-73
2022/10/29 02:14:57;;;;;;;0.35;0.35;;;;;;;;;;5032638;28;20026;-73
2022/10/29 02:17:23;;;;;;;1.00;0.95;;;;;;;;;;5033088;28;20084;-74
2022/10/29 02:19:48;;;;;;;0.20;0.20;;;;;;;;;;5033012;28;20387;-73
2022/10/29 02:22:14;;;;;;;3.13;2.53;;;;;;;;;;5033052;28;20029;-74
2022/10/29 02:24:39;;;;;;;0.20;0.20;;;;;;;;;;5032341;28;20026;-74
2022/10/29 02:27:04;;;;;;;0.57;0.57;;;;;;;;;;5033300;28;20037;-74
2022/10/29 02:29:30;;;;;;;5.85;3.10;;;;;;;;;;5032930;28;20086;-74
2022/10/29 02:31:55;;;;;;;0.28;0.28;;;;;;;;;;5018377;28;20381;-74
2022/10/29 02:34:21;;;;;;;0.57;0.57;;;;;;;;;;5037417;28;20048;-74
2022/10/29 02:36:46;;;;;;;0.10;0.10;;;;;;;;;;5019303;28;20119;-74
2022/10/29 02:39:11;;;;;;;0.10;0.10;;;;;;;;;;5018599;28;20503;-74
2022/10/29 02:41:37;;;;;;;0.10;0.10;;;;;;;;;;5036692;28;20041;-74
2022/10/29 02:44:02;;;;;;;0.10;0.10;;;;;;;;;;5019146;28;20031;-74
2022/10/29 02:46:29;;;;;;;0.10;0.10;;;;;;;;;;5036792;28;20397;-73
2022/10/29 02:48:54;;;;;;;0.13;0.13;;;;;;;;;;5017695;28;20037;-74
2022/10/29 02:51:20;;;;;;;0.10;0.10;;;;;;;;;;5018918;28;20030;-73
2022/10/29 02:53:45;;;;;;;0.30;0.30;;;;;;;;;;5036597;28;20450;-74
2022/10/29 02:56:11;;;;;;;0.10;0.10;;;;;;;;;;5036271;28;20033;-75
2022/10/29 02:58:36;;;;;;;0.10;0.10;;;;;;;;;;5037046;28;20030;-76
2022/10/29 03:01:02;;;;;;;0.10;0.10;;;;;;;;;;5036550;28;20017;-76
2022/10/29 03:03:28;;;;;;;0.60;0.60;;;;;;;;;;5030602;28;20079;-76
2022/10/29 03:05:53;;;;;;;0.10;0.10;;;;;;;;;;5031937;28;20029;-76
2022/10/29 03:08:19;;;;;;;0.50;0.50;;;;;;;;;;5032878;28;20025;-74
2022/10/29 03:10:44;;;;;;;1.98;1.83;;;;;;;;;;5015007;28;20029;-75
2022/10/29 03:13:10;;;;;;;0.10;0.10;;;;;;;;;;5031528;28;20033;-75
2022/10/29 03:15:35;;;;;;;0.10;0.10;;;;;;;;;;5032880;28;20378;-75
2022/10/29 03:18:01;;;;;;;0.17;0.17;;;;;;;;;;5032367;28;20022;-75
2022/10/29 03:20:26;;;;;;;0.10;0.10;;;;;;;;;;5032301;28;20029;-74
2022/10/29 03:22:52;;;;;;;0.10;0.10;;;;;;;;;;5032547;28;20029;-73
2022/10/29 03:25:17;;;;;;;0.10;0.10;;;;;;;;;;5014614;28;20495;-74
2022/10/29 03:27:43;;;;;;;0.10;0.10;;;;;;;;;;5032565;28;20033;-73
2022/10/29 03:30:12;;;;;;;0.10;0.10;;;;;;;;;;5032282;28;20030;-74
2022/10/29 03:32:46;;;;;;;0.10;0.10;;;;;;;;;;5014184;28;20499;-74
2022/10/29 03:35:12;;;;;;;0.10;0.10;;;;;;;;;;5032212;28;20464;-74
2022/10/29 03:37:38;;;;;;;0.52;0.52;;;;;;;;;;5032281;28;20025;-73
2022/10/29 03:40:04;;;;;;;0.10;0.10;;;;;;;;;;5032274;28;20030;-73
2022/10/29 03:42:30;;;;;;;0.10;0.10;;;;;;;;;;5031544;28;20131;-74
2022/10/29 03:44:59;;;;;;;0.10;0.10;;;;;;;;;;5032353;28;20499;-74
2022/10/29 03:47:24;;;;;;;0.10;0.10;;;;;;;;;;5032019;28;20037;-75
2022/10/29 03:49:49;;;;;;;0.10;0.10;;;;;;;;;;5016502;28;20034;-75
2022/10/29 03:52:15;;;;;;;8.25;7.63;;;;;;;;;;5041586;28;20112;-75
2022/10/29 03:54:40;;;;;;;0.15;0.15;;;;;;;;;;5042391;28;20021;-75
2022/10/29 03:57:06;;;;;;;0.10;0.10;;;;;;;;;;5017536;28;20487;-74
2022/10/29 03:59:31;;;;;;;0.10;0.10;;;;;;;;;;5031480;28;20075;-74
2022/10/29 04:01:57;;;;;;;0.10;0.10;;;;;;;;;;5031983;28;20037;-74
2022/10/29 04:04:22;;;;;;;0.40;0.40;;;;;;;;;;5031575;28;20409;-74
2022/10/29 04:06:47;;;;;;;0.10;0.10;;;;;;;;;;5014220;28;20133;-74
2022/10/29 04:09:13;;;;;;;0.95;0.95;;;;;;;;;;5031634;28;20060;-74
2022/10/29 04:11:38;;;;;;;0.10;0.10;;;;;;;;;;5031752;28;20431;-74
2022/10/29 04:14:04;;;;;;;0.10;0.10;;;;;;;;;;5031870;28;20025;-74
2022/10/29 04:16:29;;;;;;;0.10;0.10;;;;;;;;;;5031107;28;20017;-74
2022/10/29 04:18:55;;;;;;;0.10;0.10;;;;;;;;;;5031515;28;20025;-74
2022/10/29 04:21:20;;;;;;;0.10;0.10;;;;;;;;;;5031390;28;20363;-73
2022/10/29 04:23:47;;;;;;;0.10;0.10;;;;;;;;;;5031667;28;20021;-74
2022/10/29 04:26:12;;;;;;;0.10;0.10;;;;;;;;;;5014072;28;20087;-73
2022/10/29 04:28:38;;;;;;;0.10;0.10;;;;;;;;;;5030925;28;20436;-74
2022/10/29 04:31:04;;;;;;;1.10;1.10;;;;;;;;;;5031395;28;20038;-74
2022/10/29 04:33:30;;;;;;;0.80;0.60;;;;;;;;;;5012850;28;20076;-73
2022/10/29 04:35:55;;;;;;;7.40;6.85;;;;;;;;;;5031047;28;20025;-73
2022/10/29 04:38:21;;;;;;;0.10;0.10;;;;;;;;;;5031056;28;20040;-73
2022/10/29 04:40:46;;;;;;;0.10;0.10;;;;;;;;;;5013449;28;20037;-73
2022/10/29 04:43:12;;;;;;;0.22;0.22;;;;;;;;;;5030691;28;20400;-73
2022/10/29 04:45:37;;;;;;;0.10;0.10;;;;;;;;;;5031215;28;20087;-74
2022/10/29 04:48:04;;;;;;;0.10;0.10;;;;;;;;;;5030831;28;20469;-73
2022/10/29 04:50:30;;;;;;;2.78;1.05;;;;;;;;;;5012838;28;20103;-73
2022/10/29 04:53:02;;;;;;;0.10;0.10;;;;;;;;;;5030057;28;20022;-73
2022/10/29 04:55:28;;;;;;;0.10;0.10;;;;;;;;;;5029445;28;20044;-73
2022/10/29 04:57:54;;;;;;;0.10;0.10;;;;;;;;;;5030944;28;20033;-73
2022/10/29 05:00:20;;;;;;;0.20;0.20;;;;;;;;;;5029410;28;20116;-72
2022/10/29 05:02:49;;;;;;;0.10;0.10;;;;;;;;;;5030653;28;20053;-73
2022/10/29 05:05:18;;;;;;;0.10;0.10;;;;;;;;;;5030774;28;20025;-74
2022/10/29 05:07:44;;;;;;;;;;;;;;;;;;5031266;28;20056;-74
2022/10/29 05:10:09;;;;;;;0.20;0.20;;;;;;;;;;5030490;28;20396;-73
2022/10/29 05:12:35;;;;;;;0.20;0.20;;;;;;;;;;5030128;28;20134;-75
2022/10/29 05:15:00;;;;;;;0.22;0.22;;;;;;;;;;5030597;28;20117;-74
2022/10/29 05:17:26;;;;;;;0.10;0.10;;;;;;;;;;5029863;28;20029;-73
2022/10/29 05:19:51;;;;;;;0.30;0.30;;;;;;;;;;5030195;28;20034;-74
2022/10/29 05:22:17;;;;;;;0.10;0.10;;;;;;;;;;5029797;28;20098;-74
2022/10/29 05:24:42;;;;;;;0.15;0.15;;;;;;;;;;5029847;28;20036;-73
2022/10/29 05:27:08;;;;;;;0.20;0.20;;;;;;;;;;5030136;28;20057;-73
2022/10/29 05:29:33;;;;;;;0.57;0.57;;;;;;;;;;5029730;28;20105;-74
2022/10/29 05:31:58;;;;;;;0.10;0.10;;;;;;;;;;5012011;28;20030;-75
2022/10/29 05:34:24;;;;;;;0.10;0.10;;;;;;;;;;5029652;28;20026;-74
2022/10/29 05:36:49;;;;;;;5.00;3.60;;;;;;;;;;5029136;28;20037;-74
2022/10/29 05:39:15;;;;;;;0.30;0.30;;;;;;;;;;5029727;28;20343;-76
2022/10/29 05:41:40;;;;;;;1.95;1.05;;;;;;;;;;5029961;28;20053;-74
2022/10/29 05:44:06;;;;;;;1.88;1.33;;;;;;;;;;5012315;28;20022;-74
2022/10/29 05:46:31;;;;;;;0.10;0.10;;;;;;;;;;5029491;28;20461;-75
2022/10/29 05:48:57;;;;;;;0.10;0.10;;;;;;;;;;5029491;28;20120;-75
2022/10/29 05:51:22;;;;;;;3.00;1.35;;;;;;;;;;5029741;28;20064;-75
2022/10/29 05:53:48;;;;;;;0.47;0.47;;;;;;;;;;5029250;28;20458;-74
2022/10/29 05:56:14;;;;;;;0.10;0.10;;;;;;;;;;5029391;28;20112;-74
2022/10/29 05:58:39;;;;;;;0.10;0.10;;;;;;;;;;5011524;28;20432;-75
2022/10/29 06:01:06;;;;;;;0.10;0.10;;;;;;;;;;5028977;28;20033;-74
2022/10/29 06:03:31;;;;;;;1.13;1.13;;;;;;;;;;5029582;28;20111;-73
2022/10/29 06:05:57;;;;;;;0.10;0.10;;;;;;;;;;5029591;28;20528;-75
2022/10/29 06:08:22;;;;;;;0.20;0.20;;;;;;;;;;5028864;28;20412;-74
2022/10/29 06:10:48;;;;;;;0.20;0.20;;;;;;;;;;5029354;28;20033;-73
2022/10/29 06:13:15;;;;;;;0.10;0.10;;;;;;;;;;5029974;28;20036;-75
2022/10/29 06:15:40;;;;;;;0.10;0.10;;;;;;;;;;5029248;28;20480;-74
2022/10/29 06:18:06;;;;;;;0.22;0.22;;;;;;;;;;5011900;28;20112;-74
2022/10/29 06:20:32;;;;;;;0.10;0.10;;;;;;;;;;5029127;28;20481;-74
2022/10/29 06:22:57;;;;;;;1.58;1.52;;;;;;;;;;5029250;28;20108;-74
2022/10/29 06:25:23;;;;;;;0.10;0.10;;;;;;;;;;5029105;28;20025;-73
2022/10/29 06:28:05;;;;;;;12.07;10.82;;;;;;;;;;5029445;28;20083;-74
2022/10/29 06:30:31;;;;;;;0.10;0.10;;;;;;;;;;5028872;28;20231;-73
2022/10/29 06:32:56;;;;;;;0.82;0.82;;;;;;;;;;5029357;28;20748;-73
2022/10/29 06:35:22;;;;;;;0.20;0.20;;;;;;;;;;5028940;28;20021;-73
2022/10/29 06:37:47;;;;;;;0.17;0.17;;;;;;;;;;5011690;28;20037;-73
2022/10/29 06:40:13;;;;;;;0.20;0.20;;;;;;;;;;5027192;28;20481;-74
2022/10/29 06:42:38;;;;;;;0.28;0.28;;;;;;;;;;5029074;28;20049;-73
2022/10/29 06:45:04;;;;;;;0.38;0.38;;;;;;;;;;5011316;28;20389;-74
2022/10/29 06:47:29;;;;;;;0.17;0.17;;;;;;;;;;5011536;28;20033;-74
2022/10/29 06:49:55;;;;;;;6.15;4.95;;;;;;;;;;5028427;28;20037;-75
2022/10/29 06:52:21;;;;;;;0.20;0.20;;;;;;;;;;5010934;28;20400;-74
2022/10/29 06:54:46;;;;;;;0.20;0.20;;;;;;;;;;5029247;28;20030;-73
2022/10/29 06:57:12;;;;;;;0.10;0.10;;;;;;;;;;5029224;28;20477;-73
2022/10/29 06:59:37;;;;;;;0.35;0.35;;;;;;;;;;5028895;28;20067;-73
2022/10/29 07:02:03;;;;;;;0.10;0.10;;;;;;;;;;5029196;28;20079;-74
2022/10/29 07:04:28;;;;;;;1.27;1.00;;;;;;;;;;5028564;28;20068;-73
2022/10/29 07:06:53;;;;;;;0.20;0.20;;;;;;;;;;5028471;28;20026;-72
2022/10/29 07:09:19;;;;;;;0.15;0.15;;;;;;;;;;5011683;28;20827;-75
2022/10/29 07:11:44;;;;;;;0.10;0.10;;;;;;;;;;5011182;28;20396;-73
2022/10/29 07:14:10;;;;;;;0.30;0.30;;;;;;;;;;5028945;28;20516;-73
2022/10/29 07:16:36;;;;;;;0.73;0.73;;;;;;;;;;5029235;28;20442;-73
2022/10/29 07:19:02;;;;;;;6.50;3.97;;;;;;;;;;5032289;28;20144;-73
2022/10/29 07:21:28;;;;;;;0.20;0.20;;;;;;;;;;5014807;28;20103;-72
2022/10/29 07:23:54;;;;;;;1.48;1.48;;;;;;;;;;5032795;28;20085;-75
2022/10/29 07:26:19;;;;;;;0.10;0.10;;;;;;;;;;5032302;28;20113;-72
2022/10/29 07:28:45;;;;;;;0.70;0.70;;;;;;;;;;5032491;28;20472;-73
2022/10/29 07:31:11;;;;;;;0.20;0.20;;;;;;;;;;5032640;28;20034;-73
2022/10/29 07:33:36;;;;;;;0.45;0.45;;;;;;;;;;5013934;28;20076;-73
2022/10/29 07:36:02;;;;;;;0.40;0.40;;;;;;;;;;5032148;28;20033;-73
2022/10/29 07:38:27;;;;;;;0.20;0.20;;;;;;;;;;5031269;28;20359;-73
2022/10/29 07:40:53;;;;;;;0.20;0.20;;;;;;;;;;5032061;28;20060;-72
2022/10/29 07:43:19;;;;;;;0.20;0.20;;;;;;;;;;5032141;28;20041;-72
2022/10/29 07:45:45;;;;;;;0.40;0.40;;;;;;;;;;5032360;28;20021;-73
2022/10/29 07:48:11;;;;;;;0.10;0.10;;;;;;;;;;5032140;28;20033;-73
2022/10/29 07:50:37;;;;;;;0.82;0.82;;;;;;;;;;5031411;28;20327;-72
2022/10/29 07:53:03;;;;;;;0.52;0.52;;;;;;;;;;5031978;28;20041;-73
2022/10/29 07:55:28;;;;;;;4.30;2.28;;;;;;;;;;5026618;28;20013;-71
2022/10/29 07:57:57;;;;;;;0.20;0.20;;;;;;;;;;5021587;28;20025;-71
2022/10/29 08:00:23;;;;;;;;;;;;;;;;;;5031201;28;20473;-73
2022/10/29 08:02:52;;;;;;;1.70;1.60;;;;;;;;;;5027303;28;19913;-73
2022/10/29 08:05:17;;;;;;;0.20;0.20;;;;;;;;;;5029412;28;20025;-74
2022/10/29 08:07:43;;;;;;;0.30;0.30;;;;;;;;;;5023570;28;20033;-73
2022/10/29 08:10:08;;;;;;;0.20;0.20;;;;;;;;;;5016735;28;20037;-73
2022/10/29 08:12:34;;;;;;;1.48;1.48;;;;;;;;;;5014227;28;20461;-73
2022/10/29 08:14:59;;;;;;;0.20;0.20;;;;;;;;;;5017796;28;20504;-73
2022/10/29 08:17:27;;;;;;;1.30;1.20;;;;;;;;;;5016030;28;20034;-73
2022/10/29 08:19:53;;;;;;;0.20;0.20;;;;;;;;;;4997835;28;20359;-73
2022/10/29 08:22:18;;;;;;;0.20;0.20;;;;;;;;;;5007536;28;20039;-72
2022/10/29 08:24:43;;;;;;;0.20;0.20;;;;;;;;;;5018073;28;20029;-73
2022/10/29 08:27:09;;;;;;;0.20;0.20;;;;;;;;;;5023292;28;20048;-73
2022/10/29 08:29:34;;;;;;;0.30;0.30;;;;;;;;;;5021524;28;20413;-73
2022/10/29 08:32:00;;;;;;;0.30;0.30;;;;;;;;;;5019858;28;20763;-73
2022/10/29 08:34:25;;;;;;;0.35;0.35;;;;;;;;;;5023107;28;20033;-71
2022/10/29 08:36:50;;;;;;;0.20;0.20;;;;;;;;;;5021837;28;20064;-71
2022/10/29 08:39:16;;;;;;;0.30;0.30;;;;;;;;;;5022560;28;20044;-70
2022/10/29 08:41:44;;;;;;;1.25;0.40;;;;;;;;;;5026325;28;20077;-71
2022/10/29 08:44:24;;;;;;;3.57;3.30;;;;;;;;;;5006146;28;20048;-69
2022/10/29 08:46:53;;;;;;;0.20;0.20;;;;;;;;;;5020014;28;20288;-71
2022/10/29 08:49:18;;;;;;;;;;;;;;;;;;5020496;28;20033;-74
2022/10/29 08:52:05;;;;;;;0.30;0.30;;;;;;;;;;5023358;28;19916;-70
2022/10/29 08:54:34;;;;;;;0.20;0.20;;;;;;;;;;5007030;28;20300;-71
2022/10/29 08:57:04;;;;;;;0.20;0.20;;;;;;;;;;5010202;28;20283;-70
2022/10/29 08:59:34;;;;;;;0.20;0.20;;;;;;;;;;5019229;28;20030;-69
2022/10/29 09:02:00;;;;;;;0.38;0.38;;;;;;;;;;5017982;28;20091;-70
2022/10/29 09:04:32;;;;;;;0.20;0.20;;;;;;;;;;5024799;28;20025;-69
2022/10/29 09:06:58;;;;;;;0.40;0.40;;;;;;;;;;5027817;28;20385;-71
2022/10/29 09:09:37;;;;;;;0.20;0.20;;;;;;;;;;5028500;28;20039;-71
2022/10/29 09:12:02;;;;;;;44.80;17.73;;;;;;;;;;5020045;28;20029;-71
2022/10/29 09:14:54;;;;;;;0.20;0.20;;;;;;;;;;5020572;28;20743;-73
2022/10/29 09:17:28;;;;;;;0.20;0.20;;;;;;;;;;5025475;28;20720;-70
2022/10/29 09:20:03;;;;;;;0.20;0.20;;;;;;;;;;5020230;28;20030;-71
2022/10/29 09:22:28;;;;;;;0.20;0.20;;;;;;;;;;5015477;28;20037;-71
2022/10/29 09:25:04;;;;;;;0.57;0.57;;;;;;;;;;4999852;28;20038;-70
2022/10/29 09:27:35;;;;;;;3.88;3.70;;;;;;;;;;5011545;28;20173;-70
2022/10/29 09:30:05;;;;;;;0.22;0.22;;;;;;;;;;5023760;28;20075;-69
2022/10/29 09:32:40;;;;;;;3.00;0.70;;;;;;;;;;5027534;28;20044;-69
2022/10/29 09:35:13;;;;;;;1.13;1.05;;;;;;;;;;5027927;28;20037;-70
2022/10/29 09:37:39;;;;;;;1.77;0.85;;;;;;;;;;5026807;28;20034;-69
2022/10/29 09:40:05;;;;;;;4.85;2.10;;;;;;;;;;5027484;28;20052;-70
2022/10/29 09:42:36;;;;;;;0.30;0.30;;;;;;;;;;5023783;28;20049;-69
2022/10/29 09:45:03;;;;;;;1.38;1.05;;;;;;;;;;5016603;28;20037;-70
2022/10/29 09:47:37;;;;;;;7.63;1.75;;;;;;;;;;5017851;28;20037;-70
2022/10/29 09:50:02;;;;;;;0.25;0.25;;;;;;;;;;5001745;28;20049;-69
2022/10/29 09:52:30;;;;;;;0.88;0.88;;;;;;;;;;5006315;28;20022;-71
2022/10/29 09:54:57;;;;;;;0.20;0.20;;;;;;;;;;4995752;28;20081;-70
2022/10/29 09:57:25;;;;;;;2.92;1.58;;;;;;;;;;5002216;28;20037;-70
2022/10/29 09:59:53;;;;;;;0.50;0.50;;;;;;;;;;5021264;28;20116;-69
2022/10/29 10:02:19;;;;;;;4.47;2.58;;;;;;;;;;5015430;28;20068;-70
2022/10/29 10:04:46;;;;;;;0.28;0.28;;;;;;;;;;5021015;28;20107;-70
2022/10/29 10:07:16;;;;;;;0.20;0.20;;;;;;;;;;5027797;28;20040;-69
2022/10/29 10:09:53;;;;;;;0.70;0.70;;;;;;;;;;5027266;28;20544;-69
2022/10/29 10:12:20;;;;;;;0.50;0.50;;;;;;;;;;5026684;28;20087;-69
2022/10/29 10:14:47;;;;;;;0.20;0.20;;;;;;;;;;5027303;28;20075;-70
2022/10/29 10:17:12;;;;;;;0.20;0.20;;;;;;;;;;5009641;28;20033;-70
2022/10/29 10:19:42;;;;;;;0.20;0.20;;;;;;;;;;5027503;28;20026;-70
2022/10/29 10:22:15;;;;;;;2.72;1.45;;;;;;;;;;5026237;28;20036;-70
2022/10/29 10:24:42;;;;;;;0.22;0.22;;;;;;;;;;5026504;28;20036;-71
2022/10/29 10:27:16;;;;;;;0.20;0.20;;;;;;;;;;5008407;28;20062;-68
2022/10/29 10:29:42;;;;;;;0.43;0.43;;;;;;;;;;5025841;28;20034;-69
2022/10/29 10:32:15;;;;;;;1.80;1.40;;;;;;;;;;5026297;28;20036;-70
2022/10/29 10:34:41;;;;;;;1.20;0.98;;;;;;;;;;5026508;28;20032;-69
2022/10/29 10:37:17;;;;;;;0.35;0.35;;;;;;;;;;5026699;28;20041;-70
2022/10/29 10:39:46;;;;;;;0.38;0.38;;;;;;;;;;5026897;28;20033;-72
2022/10/29 10:42:17;;;;;;;3.27;1.53;;;;;;;;;;5027508;28;20108;-70
2022/10/29 10:44:46;;;;;;;0.20;0.20;;;;;;;;;;5028370;28;20268;-70
2022/10/29 10:47:12;;;;;;;0.20;0.20;;;;;;;;;;5027780;28;20431;-68
2022/10/29 10:49:37;;;;;;;5.72;1.50;;;;;;;;;;5028568;28;20029;-70
2022/10/29 10:52:05;;;;;;;2.30;1.20;;;;;;;;;;5028703;28;20042;-70
2022/10/29 10:54:32;;;;;;;0.82;0.65;;;;;;;;;;5032188;28;20067;-70
2022/10/29 10:57:21;;;;;;;0.20;0.20;;;;;;;;;;5031898;28;20033;-69
2022/10/29 10:59:51;;;;;;;0.20;0.20;;;;;;;;;;5021298;28;20551;-69
2022/10/29 11:02:19;;;;;;;2.08;1.55;;;;;;;;;;5031617;28;20605;-69
2022/10/29 11:04:49;;;;;;;7.43;2.20;;;;;;;;;;5031668;28;20630;-69
2022/10/29 11:07:16;;;;;;;0.57;0.55;;;;;;;;;;5014197;28;20025;-69
2022/10/29 11:09:45;;;;;;;0.50;0.50;;;;;;;;;;5031754;28;20404;-68
2022/10/29 11:12:31;;;;;;;0.20;0.20;;;;;;;;;;5031536;28;20034;-71
2022/10/29 11:14:59;;;;;;;0.50;0.50;;;;;;;;;;5018204;28;20038;-71
2022/10/29 11:18:00;;;;;;;2.53;1.55;;;;;;;;;;5030986;28;20021;-71
2022/10/29 11:20:27;;;;;;;2.15;1.52;;;;;;;;;;4951112;29;20546;-70
2022/10/29 11:22:53;;;;;;;0.20;0.20;;;;;;;;;;5015797;28;20030;-68
2022/10/29 11:25:20;;;;;;;0.25;0.25;;;;;;;;;;5031824;28;20033;-73
2022/10/29 11:27:52;;;;;;;1.02;0.45;;;;;;;;;;5028876;28;20542;-70
2022/10/29 11:30:18;;;;;;;0.30;0.30;;;;;;;;;;5012208;28;20103;-70
2022/10/29 11:33:12;;;;;;;1.00;0.95;;;;;;;;;;5025947;28;20034;-68
2022/10/29 11:35:53;;;;;;;0.40;0.40;;;;;;;;;;5009327;28;20109;-70
2022/10/29 11:38:19;;;;;;;0.22;0.22;;;;;;;;;;5011131;28;20478;-69
2022/10/29 11:41:04;;;;;;;2.83;1.05;;;;;;;;;;5009851;28;20045;-72
2022/10/29 11:43:31;;;;;;;0.30;0.30;;;;;;;;;;5015772;28;20053;-69
2022/10/29 11:45:56;;;;;;;0.32;0.32;;;;;;;;;;5023346;28;20141;-68
2022/10/29 11:48:22;;;;;;;0.40;0.40;;;;;;;;;;5030111;28;20429;-69
2022/10/29 11:51:06;;;;;;;1.33;0.75;;;;;;;;;;5025730;28;20025;-68
2022/10/29 11:53:31;;;;;;;0.30;0.30;;;;;;;;;;5016669;28;20030;-73
2022/10/29 11:56:11;;;;;;;2.22;1.92;;;;;;;;;;5029115;28;20132;-73
2022/10/29 11:58:42;;;;;;;0.30;0.30;;;;;;;;;;5023968;28;20084;-70
2022/10/29 12:01:11;;;;;;;0.50;0.50;;;;;;;;;;5010042;28;20021;-70
2022/10/29 12:03:55;;;;;;;0.75;0.75;;;;;;;;;;5022242;28;20560;-69
2022/10/29 12:06:23;;;;;;;0.30;0.30;;;;;;;;;;5021894;28;20039;-69
2022/10/29 12:08:58;;;;;;;0.30;0.30;;;;;;;;;;5019983;28;20010;-69
2022/10/29 12:11:38;;;;;;;0.82;0.82;;;;;;;;;;5018644;28;20033;-70
2022/10/29 12:14:18;;;;;;;2.05;1.30;;;;;;;;;;5019918;28;20052;-71
2022/10/29 12:16:50;;;;;;;1.55;0.80;;;;;;;;;;5001922;28;20120;-70
2022/10/29 12:19:27;;;;;;;4.15;1.35;;;;;;;;;;5017859;28;20034;-69
2022/10/29 12:22:12;;;;;;;12.38;2.03;;;;;;;;;;5019564;28;20025;-69
2022/10/29 12:24:46;;;;;;;2.85;1.30;;;;;;;;;;5021769;28;20052;-70
2022/10/29 12:27:26;;;;;;;5.60;1.77;;;;;;;;;;5024823;28;20025;-69
2022/10/29 12:29:51;;;;;;;3.42;1.02;;;;;;;;;;5027793;28;20038;-69
2022/10/29 12:32:29;;;;;;;0.20;0.20;;;;;;;;;;5025678;28;20056;-71
2022/10/29 12:35:01;;;;;;;1.45;0.52;;;;;;;;;;5026156;28;20141;-70
2022/10/29 12:37:33;;;;;;;2.00;1.85;;;;;;;;;;5008884;28;20033;-70
2022/10/29 12:40:04;;;;;;;0.88;0.70;;;;;;;;;;5026952;28;20542;-70
2022/10/29 12:42:30;;;;;;;0.55;0.55;;;;;;;;;;5026608;28;20042;-70
2022/10/29 12:45:08;;;;;;;7.60;2.42;;;;;;;;;;5008928;28;20021;-69
2022/10/29 12:47:39;;;;;;;1.40;1.05;;;;;;;;;;5009098;28;20180;-70
2022/10/29 12:50:14;;;;;;;0.80;0.75;;;;;;;;;;5027910;28;20052;-69
2022/10/29 12:52:39;;;;;;;1.23;0.57;;;;;;;;;;5027390;28;20030;-69
2022/10/29 12:55:05;;;;;;;1.27;0.63;;;;;;;;;;5028397;28;20021;-69
2022/10/29 12:57:32;;;;;;;8.25;1.55;;;;;;;;;;5027791;28;20037;-69
2022/10/29 13:00:16;;;;;;;4.07;1.90;;;;;;;;;;5027638;28;20033;-69
2022/10/29 13:02:43;;;;;;;0.20;0.20;;;;;;;;;;5028214;28;20038;-68
2022/10/29 13:05:09;;;;;;;7.07;2.75;;;;;;;;;;5029744;28;20213;-70
2022/10/29 13:07:57;;;;;;;3.47;1.92;;;;;;;;;;5011537;28;20469;-72
2022/10/29 13:10:23;;;;;;;1.53;0.97;;;;;;;;;;5028774;28;20037;-71
2022/10/29 13:12:51;;;;;;;5.03;2.00;;;;;;;;;;5029462;28;20688;-71
2022/10/29 13:15:19;;;;;;;0.83;0.83;;;;;;;;;;5029220;28;20063;-70
2022/10/29 13:17:47;;;;;;;24.95;2.63;;;;;;;;;;5029566;28;20033;-70
2022/10/29 13:20:19;;;;;;;4.45;2.10;;;;;;;;;;5029517;28;20039;-69
2022/10/29 13:22:53;;;;;;;3.60;1.83;;;;;;;;;;5029086;28;20350;-70
2022/10/29 13:25:37;;;;;;;0.75;0.63;;;;;;;;;;5011268;28;20033;-69
2022/10/29 13:28:06;;;;;;;4.40;1.60;;;;;;;;;;5028976;28;20072;-70
2022/10/29 13:30:32;;;;;;;8.20;1.65;;;;;;;;;;5029151;28;20048;-71
2022/10/29 13:32:58;;;;;;;4.88;2.50;;;;;;;;;;5029389;28;20079;-69
2022/10/29 13:35:23;;;;;;;5.82;2.28;;;;;;;;;;5028875;28;20022;-70
2022/10/29 13:38:08;;;;;;;2.00;0.95;;;;;;;;;;5028672;28;20079;-70
2022/10/29 13:40:33;;;;;;;5.18;1.77;;;;;;;;;;5028653;28;20022;-70
2022/10/29 13:43:03;;;;;;;10.38;2.25;;;;;;;;;;5028577;28;20072;-70
2022/10/29 13:45:29;;;;;;;1.75;0.63;;;;;;;;;;5011328;28;20104;-72
2022/10/29 13:48:00;;;;;;;4.15;1.38;;;;;;;;;;5011122;28;20025;-70
2022/10/29 13:50:26;;;;;;;47.38;5.68;;;;;;;;;;5028385;28;20492;-72
2022/10/29 13:52:52;;;;;;;2.40;0.75;;;;;;;;;;5028634;28;20057;-71
2022/10/29 13:55:18;;;;;;;4.32;1.40;;;;;;;;;;5028765;28;20052;-71
2022/10/29 13:57:47;;;;;;;0.85;0.85;;;;;;;;;;4995023;28;20026;-72
2022/10/29 14:00:12;;;;;;;1.70;0.95;;;;;;;;;;5028694;28;20488;-72
2022/10/29 14:02:41;;;;;;;2.92;1.33;;;;;;;;;;5028208;28;20025;-72
2022/10/29 14:05:25;;;;;;;3.30;2.28;;;;;;;;;;5010983;28;20183;-71
2022/10/29 14:08:20;;;;;;;1.35;1.15;;;;;;;;;;5028517;28;20021;-71
2022/10/29 14:10:51;;;;;;;1.98;1.58;;;;;;;;;;4998362;28;20140;-71
2022/10/29 14:13:19;;;;;;;3.88;1.77;;;;;;;;;;5028250;28;20040;-72
2022/10/29 14:16:08;;;;;;;2.03;0.95;;;;;;;;;;5028305;28;20522;-72
2022/10/29 14:18:35;;;;;;;8.30;2.47;;;;;;;;;;5018635;28;20112;-72
2022/10/29 14:21:01;;;;;;;2.67;1.35;;;;;;;;;;5027545;28;20045;-72
2022/10/29 14:23:28;;;;;;;2.38;1.90;;;;;;;;;;5027095;28;20373;-72
2022/10/29 14:25:59;;;;;;;8.25;1.33;;;;;;;;;;5026226;28;20033;-72
2022/10/29 14:28:25;;;;;;;11.93;2.65;;;;;;;;;;5026466;28;20025;-72
2022/10/29 14:31:09;;;;;;;2.28;1.10;;;;;;;;;;5027652;28;20084;-72
2022/10/29 14:33:35;;;;;;;2.55;0.93;;;;;;;;;;5028099;28;20021;-72
2022/10/29 14:36:04;;;;;;;9.85;3.60;;;;;;;;;;5028195;28;20473;-71
2022/10/29 14:38:53;;;;;;;4.47;4.07;;;;;;;;;;5010056;28;20033;-72
2022/10/29 14:41:20;;;;;;;5.90;1.50;;;;;;;;;;5019903;28;20125;-72
2022/10/29 14:43:51;;;;;;;2.40;1.00;;;;;;;;;;5028320;28;20056;-71
2022/10/29 14:46:26;;;;;;;2.10;1.48;;;;;;;;;;5028518;28;20095;-71
2022/10/29 14:48:54;;;;;;;3.00;1.52;;;;;;;;;;5010511;28;20030;-71
2022/10/29 14:51:20;;;;;;;8.02;2.55;;;;;;;;;;5017688;28;20040;-71
2022/10/29 14:53:51;;;;;;;2.20;1.45;;;;;;;;;;5008288;28;20037;-71